createdAt,value
2023-02-23T00:00:05.697Z,8.400000
2023-02-23T00:01:01.051Z,8.400000
2023-02-23T00:02:01.136Z,8.400000
2023-02-23T00:03:01.316Z,8.400000
2023-02-23T00:04:01.125Z,8.400000
2023-02-23T00:05:05.474Z,8.400000
2023-02-23T00:06:01.187Z,8.300000
2023-02-23T00:07:01.086Z,8.300000
2023-02-23T00:08:01.174Z,8.300000
2023-02-23T00:09:01.147Z,8.300000
2023-02-23T00:10:05.751Z,8.300000
2023-02-23T00:11:01.144Z,8.300000
2023-02-23T00:12:01.429Z,8.300000
2023-02-23T00:13:00.130Z,8.300000
2023-02-23T00:14:00.225Z,8.300000
2023-02-23T00:15:04.593Z,8.300000
2023-02-23T00:16:00.238Z,8.300000
2023-02-23T00:17:00.297Z,8.300000
2023-02-23T00:18:00.280Z,8.300000
2023-02-23T00:19:00.300Z,8.300000
2023-02-23T00:20:04.769Z,8.300000
2023-02-23T00:21:00.218Z,8.200000
2023-02-23T00:22:00.276Z,8.200000
2023-02-23T00:23:00.212Z,8.200000
2023-02-23T00:24:00.324Z,8.300000
2023-02-23T00:25:04.704Z,8.300000
2023-02-23T00:26:00.324Z,8.200000
2023-02-23T00:27:00.255Z,8.200000
2023-02-23T00:28:00.355Z,8.200000
2023-02-23T00:29:00.273Z,8.200000
2023-02-23T00:30:05.213Z,8.200000
2023-02-23T00:31:00.320Z,8.200000
2023-02-23T00:32:00.425Z,8.200000
2023-02-23T00:33:00.311Z,8.200000
2023-02-23T00:34:00.382Z,8.200000
2023-02-23T00:35:04.797Z,8.200000
2023-02-23T00:36:00.438Z,8.200000
2023-02-23T00:37:00.347Z,8.200000
2023-02-23T00:38:00.400Z,8.200000
2023-02-23T00:39:00.359Z,8.200000
2023-02-23T00:40:05.053Z,8.200000
2023-02-23T00:41:00.371Z,8.200000
2023-02-23T00:42:00.494Z,8.100000
2023-02-23T00:43:00.380Z,8.100000
2023-02-23T00:44:00.453Z,8.100000
2023-02-23T00:45:04.770Z,8.100000
2023-02-23T00:46:00.610Z,8.100000
2023-02-23T00:47:00.408Z,8.100000
2023-02-23T00:48:00.524Z,8.100000
2023-02-23T00:49:00.426Z,8.100000
2023-02-23T00:50:05.758Z,8.100000
2023-02-23T00:51:00.478Z,8.100000
2023-02-23T00:52:00.512Z,8.100000
2023-02-23T00:53:00.446Z,8.100000
2023-02-23T00:54:00.640Z,8.100000
2023-02-23T00:55:03.898Z,8.100000
2023-02-23T00:56:00.556Z,8.100000
2023-02-23T00:57:00.497Z,8.100000
2023-02-23T00:58:00.545Z,8.100000
2023-02-23T00:59:00.501Z,8.100000
2023-02-23T01:00:06.218Z,8.100000
2023-02-23T01:01:01.584Z,8.100000
2023-02-23T01:02:01.659Z,8.100000
2023-02-23T01:03:01.528Z,8.100000
2023-02-23T01:04:01.605Z,8.100000
2023-02-23T01:05:05.036Z,8.100000
2023-02-23T01:06:01.647Z,8.100000
2023-02-23T01:07:01.552Z,8.100000
2023-02-23T01:08:01.627Z,8.100000
2023-02-23T01:09:01.565Z,8.100000
2023-02-23T01:10:06.337Z,8.100000
2023-02-23T01:11:01.566Z,8.100000
2023-02-23T01:12:01.759Z,8.200000
2023-02-23T01:13:01.589Z,8.200000
2023-02-23T01:14:01.663Z,8.200000
2023-02-23T01:15:06.003Z,8.200000
2023-02-23T01:16:01.749Z,8.200000
2023-02-23T01:17:01.819Z,8.200000
2023-02-23T01:18:01.749Z,8.200000
2023-02-23T01:19:01.599Z,8.200000
2023-02-23T01:20:06.285Z,8.200000
2023-02-23T01:21:01.649Z,8.200000
2023-02-23T01:22:01.706Z,8.100000
2023-02-23T01:23:01.640Z,8.100000
2023-02-23T01:24:01.759Z,8.100000
2023-02-23T01:25:06.153Z,8.100000
2023-02-23T01:26:01.742Z,8.100000
2023-02-23T01:27:01.671Z,8.100000
2023-02-23T01:28:01.743Z,8.100000
2023-02-23T01:29:01.702Z,8.100000
2023-02-23T01:30:06.429Z,8.100000
2023-02-23T01:31:01.756Z,8.100000
2023-02-23T01:32:04.219Z,8.100000
2023-02-23T01:33:01.734Z,8.100000
2023-02-23T01:34:01.790Z,8.000000
2023-02-23T01:35:05.264Z,8.000000
2023-02-23T01:36:01.842Z,8.000000
2023-02-23T01:37:01.741Z,8.000000
2023-02-23T01:38:01.820Z,8.000000
2023-02-23T01:39:01.773Z,8.000000
2023-02-23T01:40:07.013Z,8.000000
2023-02-23T01:41:01.791Z,8.000000
2023-02-23T01:42:01.877Z,8.000000
2023-02-23T01:43:00.776Z,8.000000
2023-02-23T01:44:00.858Z,8.000000
2023-02-23T01:45:05.826Z,8.000000
2023-02-23T01:46:00.931Z,8.000000
2023-02-23T01:47:00.809Z,8.000000
2023-02-23T01:48:00.926Z,8.000000
2023-02-23T01:49:00.844Z,8.000000
2023-02-23T01:50:05.430Z,8.000000
2023-02-23T01:51:00.833Z,8.000000
2023-02-23T01:52:00.906Z,8.000000
2023-02-23T01:53:00.859Z,8.000000
2023-02-23T01:54:00.969Z,8.000000
2023-02-23T01:55:05.226Z,7.900000
2023-02-23T01:56:00.956Z,7.900000
2023-02-23T01:57:00.888Z,7.800000
2023-02-23T01:58:00.975Z,7.800000
2023-02-23T01:59:00.879Z,7.800000
2023-02-23T02:00:05.571Z,7.800000
2023-02-23T02:01:00.935Z,7.800000
2023-02-23T02:02:01.003Z,7.900000
2023-02-23T02:03:00.955Z,7.900000
2023-02-23T02:04:01.037Z,7.900000
2023-02-23T02:05:04.513Z,7.900000
2023-02-23T02:06:01.047Z,7.900000
2023-02-23T02:07:00.954Z,8.000000
2023-02-23T02:08:01.052Z,8.000000
2023-02-23T02:09:01.017Z,8.000000
2023-02-23T02:10:05.640Z,8.000000
2023-02-23T02:11:00.997Z,8.000000
2023-02-23T02:12:01.081Z,8.000000
2023-02-23T02:13:00.994Z,8.000000
2023-02-23T02:14:01.087Z,8.000000
2023-02-23T02:15:04.415Z,8.000000
2023-02-23T02:16:01.248Z,8.000000
2023-02-23T02:17:01.012Z,8.000000
2023-02-23T02:18:01.138Z,8.000000
2023-02-23T02:19:01.053Z,8.000000
2023-02-23T02:20:05.830Z,8.000000
2023-02-23T02:21:01.061Z,8.000000
2023-02-23T02:22:01.161Z,8.000000
2023-02-23T02:23:01.061Z,8.000000
2023-02-23T02:24:01.155Z,8.000000
2023-02-23T02:25:05.460Z,8.000000
2023-02-23T02:26:01.167Z,8.000000
2023-02-23T02:27:01.104Z,8.000000
2023-02-23T02:28:01.187Z,8.000000
2023-02-23T02:29:01.081Z,8.000000
2023-02-23T02:30:05.840Z,8.000000
2023-02-23T02:31:01.262Z,8.000000
2023-02-23T02:32:01.333Z,8.000000
2023-02-23T02:33:01.145Z,8.000000
2023-02-23T02:34:01.257Z,8.000000
2023-02-23T02:35:05.583Z,8.000000
2023-02-23T02:36:01.291Z,8.000000
2023-02-23T02:37:01.154Z,8.000000
2023-02-23T02:38:01.246Z,8.000000
2023-02-23T02:39:01.175Z,8.000000
2023-02-23T02:40:06.696Z,8.000000
2023-02-23T02:41:01.212Z,8.000000
2023-02-23T02:42:01.302Z,8.000000
2023-02-23T02:43:01.232Z,8.000000
2023-02-23T02:44:00.301Z,8.000000
2023-02-23T02:45:03.844Z,8.000000
2023-02-23T02:46:00.375Z,8.000000
2023-02-23T02:47:00.232Z,8.000000
2023-02-23T02:48:00.314Z,8.000000
2023-02-23T02:49:00.246Z,8.000000
2023-02-23T02:50:04.908Z,8.000000
2023-02-23T02:51:00.260Z,8.000000
2023-02-23T02:52:00.408Z,8.000000
2023-02-23T02:53:00.278Z,8.000000
2023-02-23T02:54:00.371Z,8.000000
2023-02-23T02:55:04.799Z,8.000000
2023-02-23T02:56:00.409Z,8.000000
2023-02-23T02:57:00.296Z,8.000000
2023-02-23T02:58:00.404Z,8.000000
2023-02-23T02:59:00.310Z,8.000000
2023-02-23T03:00:04.986Z,8.000000
2023-02-23T03:01:00.315Z,8.000000
2023-02-23T03:02:00.399Z,8.000000
2023-02-23T03:03:00.357Z,8.000000
2023-02-23T03:04:00.415Z,8.000000
2023-02-23T03:05:03.840Z,8.000000
2023-02-23T03:06:00.446Z,8.000000
2023-02-23T03:07:00.358Z,8.000000
2023-02-23T03:08:00.476Z,7.900000
2023-02-23T03:09:00.418Z,7.900000
2023-02-23T03:10:05.066Z,7.900000
2023-02-23T03:11:00.393Z,7.900000
2023-02-23T03:12:00.687Z,7.900000
2023-02-23T03:13:00.399Z,7.900000
2023-02-23T03:14:00.476Z,7.900000
2023-02-23T03:15:04.924Z,7.900000
2023-02-23T03:16:00.558Z,7.900000
2023-02-23T03:17:00.421Z,7.900000
2023-02-23T03:18:00.499Z,7.900000
2023-02-23T03:19:00.450Z,7.900000
2023-02-23T03:20:05.830Z,7.900000
2023-02-23T03:21:00.481Z,7.900000
2023-02-23T03:22:15.901Z,7.900000
2023-02-23T03:23:00.461Z,7.900000
2023-02-23T03:24:02.962Z,7.900000
2023-02-23T03:25:03.841Z,7.900000
2023-02-23T03:26:00.559Z,7.900000
2023-02-23T03:27:00.498Z,7.900000
2023-02-23T03:28:00.598Z,7.900000
2023-02-23T03:29:00.503Z,7.900000
2023-02-23T03:30:05.173Z,7.900000
2023-02-23T03:31:00.563Z,7.900000
2023-02-23T03:32:00.713Z,7.900000
2023-02-23T03:33:00.540Z,7.900000
2023-02-23T03:34:00.838Z,7.900000
2023-02-23T03:35:05.583Z,7.900000
2023-02-23T03:36:00.644Z,7.900000
2023-02-23T03:37:00.554Z,7.900000
2023-02-23T03:38:00.666Z,7.900000
2023-02-23T03:39:00.579Z,7.900000
2023-02-23T03:40:05.210Z,7.900000
2023-02-23T03:41:00.579Z,7.900000
2023-02-23T03:42:00.660Z,7.900000
2023-02-23T03:43:00.593Z,7.900000
2023-02-23T03:44:00.675Z,7.900000
2023-02-23T03:45:05.003Z,7.900000
2023-02-23T03:46:00.770Z,7.900000
2023-02-23T03:47:00.629Z,7.900000
2023-02-23T03:48:00.851Z,7.900000
2023-02-23T03:49:00.626Z,7.900000
2023-02-23T03:50:04.392Z,8.000000
2023-02-23T03:51:00.658Z,8.000000
2023-02-23T03:52:00.858Z,8.000000
2023-02-23T03:53:00.651Z,8.000000
2023-02-23T03:54:00.733Z,8.000000
2023-02-23T03:55:05.041Z,8.000000
2023-02-23T03:56:00.838Z,8.000000
2023-02-23T03:57:00.688Z,8.000000
2023-02-23T03:58:00.773Z,8.000000
2023-02-23T03:59:00.691Z,8.000000
2023-02-23T04:00:05.492Z,8.000000
2023-02-23T04:01:00.733Z,8.000000
2023-02-23T04:02:00.878Z,8.000000
2023-02-23T04:03:00.723Z,8.000000
2023-02-23T04:04:00.841Z,8.000000
2023-02-23T04:05:04.273Z,8.000000
2023-02-23T04:06:00.840Z,8.000000
2023-02-23T04:07:00.767Z,8.100000
2023-02-23T04:08:00.822Z,8.100000
2023-02-23T04:09:00.764Z,8.100000
2023-02-23T04:10:05.418Z,8.100000
2023-02-23T04:11:00.761Z,8.100000
2023-02-23T04:12:00.888Z,8.100000
2023-02-23T04:13:00.777Z,8.100000
2023-02-23T04:14:00.856Z,8.100000
2023-02-23T04:15:04.215Z,8.100000
2023-02-23T04:16:00.905Z,8.100000
2023-02-23T04:17:00.824Z,8.100000
2023-02-23T04:18:00.910Z,8.100000
2023-02-23T04:19:00.820Z,8.100000
2023-02-23T04:20:05.437Z,8.100000
2023-02-23T04:21:00.960Z,8.100000
2023-02-23T04:22:00.959Z,8.100000
2023-02-23T04:23:00.850Z,8.100000
2023-02-23T04:24:00.921Z,8.100000
2023-02-23T04:25:04.336Z,8.100000
2023-02-23T04:26:00.959Z,8.100000
2023-02-23T04:27:00.898Z,8.100000
2023-02-23T04:28:01.191Z,8.100000
2023-02-23T04:29:00.876Z,8.100000
2023-02-23T04:30:06.415Z,8.100000
2023-02-23T04:31:00.932Z,8.100000
2023-02-23T04:32:01.065Z,8.100000
2023-02-23T04:33:00.935Z,8.100000
2023-02-23T04:34:01.041Z,8.100000
2023-02-23T04:35:04.439Z,8.100000
2023-02-23T04:36:01.038Z,8.100000
2023-02-23T04:37:00.946Z,8.100000
2023-02-23T04:38:01.036Z,8.100000
2023-02-23T04:39:00.975Z,8.100000
2023-02-23T04:40:05.698Z,8.100000
2023-02-23T04:41:00.990Z,8.100000
2023-02-23T04:42:01.068Z,8.100000
2023-02-23T04:43:00.995Z,8.100000
2023-02-23T04:44:01.092Z,8.100000
2023-02-23T04:45:05.954Z,8.100000
2023-02-23T04:46:01.316Z,8.100000
2023-02-23T04:47:01.035Z,8.100000
2023-02-23T04:48:01.098Z,8.100000
2023-02-23T04:49:01.054Z,8.100000
2023-02-23T04:50:05.705Z,8.100000
2023-02-23T04:51:01.048Z,8.100000
2023-02-23T04:52:01.156Z,8.100000
2023-02-23T04:53:01.059Z,8.100000
2023-02-23T04:54:01.161Z,8.100000
2023-02-23T04:55:04.531Z,8.100000
2023-02-23T04:56:01.172Z,8.100000
2023-02-23T04:57:01.098Z,8.100000
2023-02-23T04:58:01.207Z,8.100000
2023-02-23T04:59:01.122Z,8.200000
2023-02-23T05:00:06.037Z,8.200000
2023-02-23T05:01:01.177Z,8.200000
2023-02-23T05:02:01.213Z,8.100000
2023-02-23T05:03:01.174Z,8.100000
2023-02-23T05:04:01.246Z,8.100000
2023-02-23T05:05:05.541Z,8.100000
2023-02-23T05:06:01.264Z,8.100000
2023-02-23T05:07:01.170Z,8.100000
2023-02-23T05:08:01.279Z,8.100000
2023-02-23T05:09:01.224Z,8.100000
2023-02-23T05:10:05.822Z,8.100000
2023-02-23T05:11:01.214Z,8.100000
2023-02-23T05:12:01.301Z,8.100000
2023-02-23T05:13:01.251Z,8.100000
2023-02-23T05:14:01.323Z,8.100000
2023-02-23T05:15:05.731Z,8.100000
2023-02-23T05:16:00.886Z,8.100000
2023-02-23T05:17:00.256Z,8.100000
2023-02-23T05:18:00.361Z,8.100000
2023-02-23T05:19:00.278Z,8.100000
2023-02-23T05:20:05.065Z,8.100000
2023-02-23T05:21:00.292Z,8.100000
2023-02-23T05:22:00.381Z,8.100000
2023-02-23T05:23:00.288Z,8.100000
2023-02-23T05:24:00.368Z,8.100000
2023-02-23T05:25:05.407Z,8.100000
2023-02-23T05:26:00.871Z,8.100000
2023-02-23T05:27:00.424Z,8.100000
2023-02-23T05:28:00.401Z,8.100000
2023-02-23T05:29:00.311Z,8.100000
2023-02-23T05:30:05.116Z,8.000000
2023-02-23T05:31:00.573Z,8.000000
2023-02-23T05:32:00.598Z,8.000000
2023-02-23T05:33:00.356Z,8.000000
2023-02-23T05:34:00.942Z,8.000000
2023-02-23T05:35:04.781Z,8.000000
2023-02-23T05:36:00.421Z,8.000000
2023-02-23T05:37:00.370Z,8.000000
2023-02-23T05:38:00.437Z,8.000000
2023-02-23T05:39:00.408Z,8.000000
2023-02-23T05:40:05.256Z,8.000000
2023-02-23T05:41:00.396Z,8.000000
2023-02-23T05:42:00.486Z,8.000000
2023-02-23T05:43:00.433Z,8.000000
2023-02-23T05:44:00.476Z,8.000000
2023-02-23T05:45:04.923Z,8.000000
2023-02-23T05:46:00.545Z,8.000000
2023-02-23T05:47:00.461Z,8.000000
2023-02-23T05:48:00.874Z,8.000000
2023-02-23T05:49:00.448Z,8.000000
2023-02-23T05:50:05.506Z,8.000000
2023-02-23T05:51:00.474Z,8.000000
2023-02-23T05:52:00.873Z,8.000000
2023-02-23T05:53:00.480Z,7.900000
2023-02-23T05:54:00.591Z,7.900000
2023-02-23T05:55:04.874Z,7.900000
2023-02-23T05:56:00.579Z,7.900000
2023-02-23T05:57:01.808Z,7.900000
2023-02-23T05:58:00.597Z,7.900000
2023-02-23T05:59:00.499Z,7.900000
2023-02-23T06:00:06.169Z,7.900000
2023-02-23T06:01:00.553Z,7.900000
2023-02-23T06:02:00.645Z,7.900000
2023-02-23T06:03:00.609Z,7.900000
2023-02-23T06:04:00.724Z,7.900000
2023-02-23T06:05:04.947Z,7.900000
2023-02-23T06:06:00.902Z,7.900000
2023-02-23T06:07:00.581Z,7.900000
2023-02-23T06:08:00.650Z,7.900000
2023-02-23T06:09:00.608Z,7.900000
2023-02-23T06:10:05.313Z,7.800000
2023-02-23T06:11:00.615Z,7.800000
2023-02-23T06:12:00.717Z,7.800000
2023-02-23T06:13:00.630Z,7.800000
2023-02-23T06:14:00.877Z,7.800000
2023-02-23T06:15:05.095Z,7.800000
2023-02-23T06:16:00.733Z,7.800000
2023-02-23T06:17:00.710Z,7.800000
2023-02-23T06:18:00.735Z,7.800000
2023-02-23T06:19:00.696Z,7.800000
2023-02-23T06:20:05.938Z,7.800000
2023-02-23T06:21:00.700Z,7.800000
2023-02-23T06:22:00.949Z,7.800000
2023-02-23T06:23:00.710Z,7.800000
2023-02-23T06:24:00.878Z,7.800000
2023-02-23T06:25:05.080Z,7.800000
2023-02-23T06:26:00.798Z,7.800000
2023-02-23T06:27:00.728Z,7.800000
2023-02-23T06:28:00.833Z,7.800000
2023-02-23T06:29:00.718Z,7.800000
2023-02-23T06:30:05.789Z,7.800000
2023-02-23T06:31:00.907Z,7.800000
2023-02-23T06:32:01.286Z,7.800000
2023-02-23T06:33:00.816Z,7.800000
2023-02-23T06:34:00.938Z,7.800000
2023-02-23T06:35:04.404Z,7.800000
2023-02-23T06:36:00.855Z,7.800000
2023-02-23T06:37:00.785Z,7.800000
2023-02-23T06:38:01.101Z,7.800000
2023-02-23T06:39:00.804Z,7.800000
2023-02-23T06:40:05.576Z,7.800000
2023-02-23T06:41:00.803Z,7.800000
2023-02-23T06:42:00.912Z,7.800000
2023-02-23T06:43:00.814Z,7.800000
2023-02-23T06:44:00.879Z,7.800000
2023-02-23T06:45:04.437Z,7.800000
2023-02-23T06:46:00.948Z,7.800000
2023-02-23T06:47:00.860Z,7.800000
2023-02-23T06:48:00.923Z,7.800000
2023-02-23T06:49:00.832Z,7.800000
2023-02-23T06:50:05.794Z,7.800000
2023-02-23T06:51:00.987Z,7.800000
2023-02-23T06:52:01.070Z,7.800000
2023-02-23T06:53:00.912Z,7.800000
2023-02-23T06:54:00.999Z,7.800000
2023-02-23T06:55:05.299Z,7.800000
2023-02-23T06:56:00.960Z,7.800000
2023-02-23T06:57:00.922Z,7.800000
2023-02-23T06:58:01.023Z,7.800000
2023-02-23T06:59:00.916Z,7.800000
2023-02-23T07:00:06.443Z,7.800000
2023-02-23T07:01:01.047Z,7.800000
2023-02-23T07:02:01.044Z,7.800000
2023-02-23T07:03:00.967Z,7.800000
2023-02-23T07:04:01.094Z,7.800000
2023-02-23T07:05:05.354Z,7.800000
2023-02-23T07:06:01.068Z,7.900000
2023-02-23T07:07:00.968Z,7.900000
2023-02-23T07:08:01.067Z,7.900000
2023-02-23T07:09:00.998Z,7.900000
2023-02-23T07:10:05.597Z,7.900000
2023-02-23T07:11:01.003Z,7.900000
2023-02-23T07:12:01.073Z,7.900000
2023-02-23T07:13:00.996Z,7.900000
2023-02-23T07:14:01.082Z,7.900000
2023-02-23T07:15:06.298Z,7.900000
2023-02-23T07:16:01.136Z,7.900000
2023-02-23T07:17:01.042Z,7.900000
2023-02-23T07:18:01.124Z,7.900000
2023-02-23T07:19:01.040Z,7.900000
2023-02-23T07:20:05.744Z,7.900000
2023-02-23T07:21:01.088Z,7.900000
2023-02-23T07:22:01.154Z,7.900000
2023-02-23T07:23:01.072Z,7.900000
2023-02-23T07:24:01.155Z,7.900000
2023-02-23T07:25:05.793Z,7.900000
2023-02-23T07:26:01.164Z,7.900000
2023-02-23T07:27:01.126Z,7.900000
2023-02-23T07:28:01.161Z,7.900000
2023-02-23T07:29:01.111Z,7.900000
2023-02-23T07:30:06.424Z,7.900000
2023-02-23T07:31:01.192Z,7.900000
2023-02-23T07:32:01.385Z,7.900000
2023-02-23T07:33:01.141Z,7.900000
2023-02-23T07:34:01.199Z,7.900000
2023-02-23T07:35:05.554Z,7.900000
2023-02-23T07:36:01.228Z,7.900000
2023-02-23T07:37:01.150Z,7.900000
2023-02-23T07:38:01.307Z,7.900000
2023-02-23T07:39:01.174Z,7.900000
2023-02-23T07:40:08.406Z,7.900000
2023-02-23T07:41:01.178Z,7.900000
2023-02-23T07:42:01.287Z,7.900000
2023-02-23T07:43:01.200Z,7.900000
2023-02-23T07:44:01.284Z,7.900000
2023-02-23T07:45:05.800Z,7.900000
2023-02-23T07:46:01.304Z,7.900000
2023-02-23T07:47:01.205Z,7.900000
2023-02-23T07:48:01.348Z,7.900000
2023-02-23T07:49:01.228Z,7.900000
2023-02-23T07:50:05.985Z,7.900000
2023-02-23T07:51:01.250Z,7.800000
2023-02-23T07:52:01.320Z,7.800000
2023-02-23T07:53:01.297Z,7.800000
2023-02-23T07:54:00.384Z,7.800000
2023-02-23T07:55:03.780Z,7.800000
2023-02-23T07:56:00.355Z,7.800000
2023-02-23T07:57:00.308Z,7.800000
2023-02-23T07:58:00.360Z,7.800000
2023-02-23T07:59:00.300Z,7.800000
2023-02-23T08:00:04.998Z,7.800000
2023-02-23T08:01:00.350Z,7.800000
2023-02-23T08:02:00.427Z,7.800000
2023-02-23T08:03:00.308Z,7.800000
2023-02-23T08:04:00.441Z,7.700000
2023-02-23T08:05:04.699Z,7.700000
2023-02-23T08:06:00.916Z,7.700000
2023-02-23T08:07:00.346Z,7.700000
2023-02-23T08:08:00.424Z,7.700000
2023-02-23T08:09:00.364Z,7.700000
2023-02-23T08:10:05.903Z,7.700000
2023-02-23T08:11:00.408Z,7.700000
2023-02-23T08:12:00.490Z,7.700000
2023-02-23T08:13:00.415Z,7.700000
2023-02-23T08:14:00.933Z,7.700000
2023-02-23T08:15:05.546Z,7.700000
2023-02-23T08:16:00.484Z,7.700000
2023-02-23T08:17:00.484Z,7.800000
2023-02-23T08:18:00.504Z,7.800000
2023-02-23T08:19:00.444Z,7.800000
2023-02-23T08:20:07.914Z,7.800000
2023-02-23T08:21:00.465Z,7.800000
2023-02-23T08:22:00.549Z,7.800000
2023-02-23T08:23:00.454Z,7.800000
2023-02-23T08:24:00.844Z,7.800000
2023-02-23T08:25:05.027Z,7.800000
2023-02-23T08:26:00.601Z,7.800000
2023-02-23T08:27:00.508Z,7.800000
2023-02-23T08:28:00.554Z,7.800000
2023-02-23T08:29:00.516Z,7.800000
2023-02-23T08:30:05.159Z,7.800000
2023-02-23T08:31:00.601Z,7.800000
2023-02-23T08:32:01.222Z,7.800000
2023-02-23T08:33:00.536Z,7.800000
2023-02-23T08:34:00.609Z,7.800000
2023-02-23T08:35:04.989Z,7.800000
2023-02-23T08:36:00.652Z,7.800000
2023-02-23T08:37:00.579Z,7.800000
2023-02-23T08:38:00.866Z,7.800000
2023-02-23T08:39:00.600Z,7.800000
2023-02-23T08:40:05.253Z,7.900000
2023-02-23T08:41:00.574Z,7.900000
2023-02-23T08:42:01.028Z,7.900000
2023-02-23T08:43:00.589Z,7.900000
2023-02-23T08:44:00.713Z,7.900000
2023-02-23T08:45:06.038Z,7.900000
2023-02-23T08:46:00.980Z,7.900000
2023-02-23T08:47:00.633Z,7.900000
2023-02-23T08:48:00.713Z,7.900000
2023-02-23T08:49:00.651Z,7.900000
2023-02-23T08:50:05.511Z,7.900000
2023-02-23T08:51:00.679Z,7.900000
2023-02-23T08:52:00.712Z,7.900000
2023-02-23T08:53:00.691Z,7.900000
2023-02-23T08:54:00.896Z,7.900000
2023-02-23T08:55:05.184Z,7.900000
2023-02-23T08:56:00.930Z,7.900000
2023-02-23T08:57:00.782Z,7.900000
2023-02-23T08:58:00.784Z,7.900000
2023-02-23T08:59:00.695Z,7.900000
2023-02-23T09:00:05.889Z,7.900000
2023-02-23T09:01:00.753Z,7.900000
2023-02-23T09:02:01.781Z,8.000000
2023-02-23T09:03:00.763Z,8.000000
2023-02-23T09:04:01.785Z,8.000000
2023-02-23T09:05:05.970Z,8.000000
2023-02-23T09:06:00.876Z,8.000000
2023-02-23T09:07:00.797Z,8.000000
2023-02-23T09:08:01.697Z,8.000000
2023-02-23T09:09:00.778Z,8.000000
2023-02-23T09:10:05.835Z,8.000000
2023-02-23T09:11:00.804Z,8.000000
2023-02-23T09:12:02.257Z,8.000000
2023-02-23T09:13:00.812Z,8.000000
2023-02-23T09:14:00.974Z,8.000000
2023-02-23T09:15:05.207Z,8.000000
2023-02-23T09:16:01.100Z,8.000000
2023-02-23T09:17:00.837Z,8.000000
2023-02-23T09:18:01.416Z,8.000000
2023-02-23T09:19:00.848Z,8.000000
2023-02-23T09:20:05.533Z,8.000000
2023-02-23T09:21:00.859Z,8.000000
2023-02-23T09:22:00.928Z,8.100000
2023-02-23T09:23:00.890Z,8.100000
2023-02-23T09:24:00.975Z,8.100000
2023-02-23T09:25:05.270Z,8.100000
2023-02-23T09:26:00.976Z,8.100000
2023-02-23T09:27:00.890Z,8.200000
2023-02-23T09:28:00.974Z,8.200000
2023-02-23T09:29:00.932Z,8.200000
2023-02-23T09:30:04.778Z,8.200000
2023-02-23T09:31:01.090Z,8.200000
2023-02-23T09:32:01.134Z,8.200000
2023-02-23T09:33:00.922Z,8.200000
2023-02-23T09:34:01.024Z,8.200000
2023-02-23T09:35:05.416Z,8.200000
2023-02-23T09:36:01.033Z,8.200000
2023-02-23T09:37:00.943Z,8.200000
2023-02-23T09:38:01.057Z,8.200000
2023-02-23T09:39:00.973Z,8.200000
2023-02-23T09:40:05.603Z,8.200000
2023-02-23T09:41:00.976Z,8.200000
2023-02-23T09:42:01.072Z,8.200000
2023-02-23T09:43:01.000Z,8.200000
2023-02-23T09:44:01.271Z,8.200000
2023-02-23T09:45:05.466Z,8.200000
2023-02-23T09:46:01.106Z,8.200000
2023-02-23T09:47:01.005Z,8.200000
2023-02-23T09:48:01.102Z,8.200000
2023-02-23T09:49:01.031Z,8.200000
2023-02-23T09:50:05.797Z,8.200000
2023-02-23T09:51:01.064Z,8.200000
2023-02-23T09:52:01.122Z,8.200000
2023-02-23T09:53:01.896Z,8.200000
2023-02-23T09:54:01.145Z,8.200000
2023-02-23T09:55:05.661Z,8.200000
2023-02-23T09:56:01.155Z,8.200000
2023-02-23T09:57:01.073Z,8.200000
2023-02-23T09:58:01.153Z,8.200000
2023-02-23T09:59:01.106Z,8.200000
2023-02-23T10:00:06.875Z,8.200000
2023-02-23T10:01:01.129Z,8.200000
2023-02-23T10:02:01.210Z,8.200000
2023-02-23T10:03:01.159Z,8.200000
2023-02-23T10:04:01.210Z,8.200000
2023-02-23T10:05:05.669Z,8.200000
2023-02-23T10:06:01.310Z,8.200000
2023-02-23T10:07:01.185Z,8.200000
2023-02-23T10:08:01.419Z,8.300000
2023-02-23T10:09:01.168Z,8.300000
2023-02-23T10:10:05.917Z,8.300000
2023-02-23T10:11:01.186Z,8.300000
2023-02-23T10:12:01.278Z,8.300000
2023-02-23T10:13:01.191Z,8.300000
2023-02-23T10:14:01.307Z,8.300000
2023-02-23T10:15:05.734Z,8.400000
2023-02-23T10:16:01.411Z,8.400000
2023-02-23T10:17:01.215Z,8.400000
2023-02-23T10:18:03.226Z,8.400000
2023-02-23T10:19:01.206Z,8.400000
2023-02-23T10:20:05.962Z,8.400000
2023-02-23T10:21:00.246Z,8.500000
2023-02-23T10:22:00.341Z,8.500000
2023-02-23T10:23:00.264Z,8.500000
2023-02-23T10:24:00.337Z,8.500000
2023-02-23T10:25:04.677Z,8.500000
2023-02-23T10:26:00.350Z,8.600000
2023-02-23T10:27:00.265Z,8.600000
2023-02-23T10:28:00.891Z,8.500000
2023-02-23T10:29:00.273Z,8.500000
2023-02-23T10:30:04.936Z,8.500000
2023-02-23T10:31:00.471Z,8.500000
2023-02-23T10:32:00.751Z,8.500000
2023-02-23T10:33:00.439Z,8.500000
2023-02-23T10:34:00.371Z,8.500000
2023-02-23T10:35:04.831Z,8.500000
2023-02-23T10:36:12.553Z,8.500000
2023-02-23T10:37:00.325Z,8.500000
2023-02-23T10:38:00.703Z,8.600000
2023-02-23T10:39:00.333Z,8.600000
2023-02-23T10:40:04.886Z,8.600000
2023-02-23T10:41:00.345Z,8.500000
2023-02-23T10:42:00.886Z,8.500000
2023-02-23T10:43:00.335Z,8.500000
2023-02-23T10:44:15.412Z,8.500000
2023-02-23T10:45:04.797Z,8.500000
2023-02-23T10:46:00.749Z,8.500000
2023-02-23T10:47:00.363Z,8.500000
2023-02-23T10:48:01.232Z,8.500000
2023-02-23T10:49:00.366Z,8.500000
2023-02-23T10:50:05.059Z,8.500000
2023-02-23T10:51:00.377Z,8.500000
2023-02-23T10:52:00.961Z,8.500000
2023-02-23T10:53:00.415Z,8.500000
2023-02-23T10:54:07.824Z,8.500000
2023-02-23T10:55:05.610Z,8.600000
2023-02-23T10:56:01.355Z,8.600000
2023-02-23T10:57:00.443Z,8.600000
2023-02-23T10:58:01.184Z,8.600000
2023-02-23T10:59:00.488Z,8.600000
2023-02-23T11:00:06.459Z,8.600000
2023-02-23T11:01:00.465Z,8.600000
2023-02-23T11:02:02.835Z,8.600000
2023-02-23T11:03:00.468Z,8.600000
2023-02-23T11:04:06.177Z,8.600000
2023-02-23T11:05:05.816Z,8.600000
2023-02-23T11:06:01.696Z,8.600000
2023-02-23T11:07:00.491Z,8.600000
2023-02-23T11:08:00.568Z,8.600000
2023-02-23T11:09:01.966Z,8.600000
2023-02-23T11:10:05.325Z,8.600000
2023-02-23T11:11:00.520Z,8.600000
2023-02-23T11:12:00.657Z,8.600000
2023-02-23T11:13:00.515Z,8.600000
2023-02-23T11:14:00.676Z,8.600000
2023-02-23T11:15:04.936Z,8.600000
2023-02-23T11:16:00.636Z,8.700000
2023-02-23T11:17:00.550Z,8.700000
2023-02-23T11:18:00.649Z,8.700000
2023-02-23T11:19:00.837Z,8.800000
2023-02-23T11:20:11.923Z,8.800000
2023-02-23T11:21:00.585Z,8.800000
2023-02-23T11:22:01.059Z,8.800000
2023-02-23T11:23:09.578Z,8.800000
2023-02-23T11:24:00.676Z,8.800000
2023-02-23T11:25:05.253Z,8.800000
2023-02-23T11:26:00.647Z,8.800000
2023-02-23T11:27:00.639Z,8.800000
2023-02-23T11:28:00.699Z,8.800000
2023-02-23T11:29:00.622Z,8.800000
2023-02-23T11:30:05.440Z,8.800000
2023-02-23T11:31:00.676Z,8.800000
2023-02-23T11:32:00.799Z,8.800000
2023-02-23T11:33:00.654Z,8.800000
2023-02-23T11:34:00.691Z,8.800000
2023-02-23T11:35:05.107Z,8.800000
2023-02-23T11:36:00.974Z,8.800000
2023-02-23T11:37:00.639Z,8.700000
2023-02-23T11:38:00.748Z,8.700000
2023-02-23T11:39:00.673Z,8.700000
2023-02-23T11:40:05.417Z,8.700000
2023-02-23T11:41:00.669Z,8.500000
2023-02-23T11:42:00.784Z,8.500000
2023-02-23T11:43:00.677Z,8.500000
2023-02-23T11:44:00.760Z,8.500000